createdAt,value
2017-08-07T00:01:56.469Z,19.40
2017-08-07T00:04:25.575Z,20.20
2017-08-07T00:06:54.877Z,20.17
2017-08-07T00:09:24.170Z,19.77
2017-08-07T00:11:53.612Z,19.97
2017-08-07T00:14:22.760Z,20.17
2017-08-07T00:16:52.187Z,19.50
2017-08-07T00:19:22.139Z,20.73
2017-08-07T00:21:51.372Z,19.13
2017-08-07T00:24:21.351Z,20.30
2017-08-07T00:26:51.438Z,19.90
2017-08-07T00:29:21.286Z,19.00
2017-08-07T00:31:51.319Z,20.53
2017-08-07T00:34:20.782Z,20.77
2017-08-07T00:36:50.599Z,19.97
2017-08-07T00:39:19.925Z,20.87
2017-08-07T00:41:49.076Z,20.00
2017-08-07T00:44:18.433Z,19.80
2017-08-07T00:46:47.714Z,19.83
2017-08-07T00:49:17.219Z,21.50
2017-08-07T00:51:46.561Z,19.73
2017-08-07T00:54:16.094Z,20.30
2017-08-07T00:56:45.398Z,21.03
2017-08-07T00:59:14.706Z,20.50
2017-08-07T01:01:44.875Z,21.23
2017-08-07T01:04:14.208Z,21.40
2017-08-07T01:06:43.316Z,20.77
2017-08-07T01:09:12.856Z,20.40
2017-08-07T01:11:42.092Z,20.17
2017-08-07T01:14:11.226Z,20.40
2017-08-07T01:16:40.749Z,20.23
2017-08-07T01:19:10.913Z,20.07
2017-08-07T01:21:40.172Z,20.60
2017-08-07T01:24:09.536Z,19.60
2017-08-07T01:26:38.566Z,20.10
2017-08-07T01:29:08.167Z,19.83
2017-08-07T01:31:37.611Z,19.50
2017-08-07T01:34:06.755Z,19.67
2017-08-07T01:36:36.058Z,19.10
2017-08-07T01:39:05.474Z,19.80
2017-08-07T01:41:34.648Z,19.67
2017-08-07T01:44:04.150Z,18.67
2017-08-07T01:46:33.289Z,20.63
2017-08-07T01:49:02.888Z,20.27
2017-08-07T01:51:32.174Z,19.97
2017-08-07T01:54:01.493Z,20.10
2017-08-07T01:56:30.991Z,19.50
2017-08-07T01:59:00.136Z,19.07
2017-08-07T02:01:29.517Z,19.23
2017-08-07T02:04:00.594Z,19.00
2017-08-07T02:06:29.606Z,17.67
2017-08-07T02:08:58.980Z,18.37
2017-08-07T02:11:28.203Z,17.70
2017-08-07T02:13:57.704Z,17.00
2017-08-07T02:16:26.982Z,17.83
2017-08-07T02:18:56.261Z,18.00
2017-08-07T02:21:25.778Z,17.90
2017-08-07T02:23:55.012Z,17.70
2017-08-07T02:26:24.447Z,18.33
2017-08-07T02:28:53.721Z,18.93
2017-08-07T02:31:23.776Z,18.07
2017-08-07T02:33:53.445Z,18.63
2017-08-07T02:36:22.532Z,18.50
2017-08-07T02:38:51.819Z,18.00
2017-08-07T02:41:21.149Z,17.60
2017-08-07T02:43:50.503Z,18.37
2017-08-07T02:46:19.734Z,16.10
2017-08-07T02:48:52.232Z,18.90
2017-08-07T02:51:21.722Z,17.73
2017-08-07T02:53:51.536Z,16.43
2017-08-07T02:56:20.893Z,17.00
2017-08-07T02:58:50.247Z,18.10
2017-08-07T03:01:20.485Z,17.67
2017-08-07T03:03:49.688Z,16.20
2017-08-07T03:06:20.320Z,17.40
2017-08-07T03:08:49.611Z,16.90
2017-08-07T03:11:18.841Z,15.80
2017-08-07T03:13:48.349Z,16.13
2017-08-07T03:16:17.647Z,16.70
2017-08-07T03:18:47.200Z,16.80
2017-08-07T03:21:16.424Z,17.57
2017-08-07T03:23:46.863Z,17.43
2017-08-07T03:26:16.196Z,13.93
2017-08-07T03:28:45.534Z,17.83
2017-08-07T03:31:15.432Z,15.00
2017-08-07T03:33:47.794Z,16.53
2017-08-07T03:36:17.899Z,16.50
2017-08-07T03:38:50.734Z,16.83
2017-08-07T03:41:26.827Z,17.30
2017-08-07T03:44:04.678Z,15.73
2017-08-07T03:46:33.786Z,16.20
2017-08-07T03:49:03.114Z,17.40
2017-08-07T03:51:32.577Z,16.87
2017-08-07T03:54:02.537Z,15.93
2017-08-07T03:56:31.907Z,17.77
2017-08-07T03:59:01.247Z,16.80
2017-08-07T04:01:30.602Z,15.60
2017-08-07T04:03:59.824Z,14.47
2017-08-07T04:06:30.021Z,16.00
2017-08-07T04:08:59.526Z,16.90
2017-08-07T04:11:30.838Z,16.30
2017-08-07T04:14:00.262Z,16.00
2017-08-07T04:16:29.556Z,17.30
2017-08-07T04:18:59.961Z,16.30
2017-08-07T04:21:29.524Z,16.87
2017-08-07T04:23:59.039Z,16.20
2017-08-07T04:26:28.666Z,15.60
2017-08-07T04:29:04.228Z,15.53
2017-08-07T04:31:33.618Z,16.70
2017-08-07T04:34:02.866Z,16.00
2017-08-07T04:36:32.248Z,15.20
2017-08-07T04:39:01.678Z,15.17
2017-08-07T04:41:31.129Z,16.43
2017-08-07T04:44:00.444Z,16.10
2017-08-07T04:46:29.969Z,15.90
2017-08-07T04:48:59.230Z,16.10
2017-08-07T04:51:28.501Z,16.13
2017-08-07T04:53:58.021Z,15.87
2017-08-07T04:56:26.870Z,14.53
2017-08-07T04:58:56.278Z,15.90
2017-08-07T05:01:25.588Z,15.20
2017-08-07T05:03:55.444Z,16.20
2017-08-07T05:06:24.883Z,15.90
2017-08-07T05:08:54.531Z,15.33
2017-08-07T05:11:23.947Z,16.70
2017-08-07T05:13:53.348Z,15.77
2017-08-07T05:16:22.747Z,16.47
2017-08-07T05:18:52.048Z,15.80
2017-08-07T05:21:21.429Z,15.83
2017-08-07T05:23:50.868Z,15.03
2017-08-07T05:26:20.078Z,17.10
2017-08-07T05:28:56.033Z,15.07
2017-08-07T05:31:25.419Z,17.30
2017-08-07T05:33:54.606Z,16.80
2017-08-07T05:36:23.719Z,15.67
2017-08-07T05:38:53.178Z,17.43
2017-08-07T05:41:22.243Z,16.37
2017-08-07T05:43:51.802Z,16.60
2017-08-07T05:46:21.228Z,15.50
2017-08-07T05:48:50.633Z,16.70
2017-08-07T05:51:19.831Z,17.47
2017-08-07T05:53:49.039Z,16.07
2017-08-07T05:56:18.779Z,17.23
2017-08-07T05:58:48.047Z,15.70
2017-08-07T06:01:17.358Z,18.27
2017-08-07T06:03:46.913Z,17.20
2017-08-07T06:06:16.341Z,16.93
2017-08-07T06:08:45.429Z,18.30
2017-08-07T06:11:16.973Z,17.07
2017-08-07T06:13:46.091Z,17.47
2017-08-07T06:16:15.217Z,17.13
2017-08-07T06:18:44.502Z,17.37
2017-08-07T06:21:14.055Z,17.27
2017-08-07T06:23:43.073Z,18.00
2017-08-07T06:26:12.378Z,17.30
2017-08-07T06:28:41.627Z,18.50
2017-08-07T06:31:11.174Z,18.47
2017-08-07T06:33:41.552Z,17.80
2017-08-07T06:36:10.886Z,19.20
2017-08-07T06:38:40.107Z,18.90
2017-08-07T06:41:09.729Z,17.03
2017-08-07T06:43:39.086Z,18.80
2017-08-07T06:46:09.523Z,20.27
2017-08-07T06:48:38.849Z,20.80
2017-08-07T06:51:09.165Z,19.07
2017-08-07T06:53:38.428Z,18.23
2017-08-07T06:56:08.162Z,18.10
2017-08-07T06:58:37.299Z,19.73
2017-08-07T07:01:06.507Z,19.13
2017-08-07T07:03:35.723Z,20.37
2017-08-07T07:06:05.846Z,18.87
2017-08-07T07:08:35.278Z,19.30
2017-08-07T07:11:04.654Z,18.07
2017-08-07T07:13:35.842Z,18.37
2017-08-07T07:16:05.309Z,19.40
2017-08-07T07:18:34.603Z,19.30
2017-08-07T07:21:03.825Z,20.40
2017-08-07T07:23:33.305Z,20.50
2017-08-07T07:26:02.340Z,19.70
2017-08-07T07:28:31.502Z,20.93
2017-08-07T07:31:02.752Z,18.53
2017-08-07T07:33:32.168Z,19.13
2017-08-07T07:36:02.887Z,19.23
2017-08-07T07:38:35.533Z,19.20
2017-08-07T07:41:04.754Z,20.47
2017-08-07T07:43:33.996Z,21.63
2017-08-07T07:46:03.249Z,21.10
2017-08-07T07:48:32.747Z,20.83
2017-08-07T07:51:01.888Z,20.03
2017-08-07T07:53:31.335Z,20.30
2017-08-07T07:56:00.777Z,19.50
2017-08-07T07:58:30.183Z,19.90
2017-08-07T08:00:59.355Z,20.43
2017-08-07T08:03:28.516Z,20.50
2017-08-07T08:06:02.196Z,20.43
2017-08-07T08:08:31.733Z,19.97
2017-08-07T08:11:01.261Z,20.30
2017-08-07T08:13:30.889Z,19.87
2017-08-07T08:16:01.067Z,21.60
2017-08-07T08:18:31.457Z,21.90
2017-08-07T08:21:01.483Z,18.93
2017-08-07T08:23:30.637Z,21.57
2017-08-07T08:25:59.837Z,19.87
2017-08-07T08:28:29.252Z,20.70
2017-08-07T08:30:58.397Z,20.83
2017-08-07T08:33:27.408Z,21.30
2017-08-07T08:35:56.564Z,20.10
2017-08-07T08:38:25.805Z,21.43
2017-08-07T08:40:55.707Z,21.00
2017-08-07T08:43:25.056Z,19.70
2017-08-07T08:45:54.248Z,21.37
2017-08-07T08:48:23.579Z,21.93
2017-08-07T08:50:53.014Z,21.10
2017-08-07T08:53:22.212Z,19.50
2017-08-07T08:55:52.451Z,21.50
2017-08-07T08:58:21.541Z,22.17
2017-08-07T09:00:51.114Z,20.03
2017-08-07T09:03:20.455Z,20.30
2017-08-07T09:05:49.757Z,20.00
2017-08-07T09:08:19.375Z,20.80
2017-08-07T09:10:48.769Z,21.13
2017-08-07T09:13:18.067Z,20.17
2017-08-07T09:15:47.485Z,21.40
2017-08-07T09:18:17.128Z,21.97
2017-08-07T09:20:46.446Z,20.97
2017-08-07T09:23:15.934Z,23.27
2017-08-07T09:25:45.116Z,21.30
2017-08-07T09:28:14.560Z,22.10
2017-08-07T09:30:43.662Z,23.07
2017-08-07T09:33:12.779Z,21.50
2017-08-07T09:35:42.810Z,22.20
2017-08-07T09:38:12.827Z,21.70
2017-08-07T09:40:41.808Z,20.13
2017-08-07T09:43:11.414Z,21.73
2017-08-07T09:45:40.536Z,20.97
2017-08-07T09:48:09.367Z,20.57
2017-08-07T09:50:38.394Z,20.83
2017-08-07T09:53:08.006Z,20.87
2017-08-07T09:55:36.985Z,20.40
2017-08-07T09:58:06.615Z,20.07
2017-08-07T10:00:35.882Z,20.03
2017-08-07T10:03:05.702Z,21.37
2017-08-07T10:05:36.142Z,20.27
2017-08-07T10:08:06.472Z,20.53
2017-08-07T10:10:35.642Z,21.60
2017-08-07T10:13:05.027Z,20.40
2017-08-07T10:15:34.211Z,20.40
2017-08-07T10:18:03.633Z,21.20
2017-08-07T10:20:33.771Z,21.13
2017-08-07T10:23:03.112Z,21.47
2017-08-07T10:25:32.470Z,19.37
2017-08-07T10:28:01.729Z,19.23
2017-08-07T10:30:31.151Z,21.37
2017-08-07T10:33:00.481Z,19.10
2017-08-07T10:35:29.741Z,20.03
2017-08-07T10:37:58.911Z,20.67
2017-08-07T10:40:28.100Z,19.60
2017-08-07T10:42:57.276Z,20.50
2017-08-07T10:45:28.005Z,21.73
2017-08-07T10:47:57.105Z,20.47
2017-08-07T10:50:27.241Z,20.43
2017-08-07T10:52:56.548Z,22.30
2017-08-07T10:55:25.824Z,19.73
2017-08-07T10:57:55.267Z,20.00
2017-08-07T11:00:24.505Z,20.10
2017-08-07T11:02:53.633Z,19.67
2017-08-07T11:05:22.721Z,19.00
2017-08-07T11:07:53.137Z,21.00
2017-08-07T11:10:22.469Z,20.37
2017-08-07T11:12:51.909Z,19.50
2017-08-07T11:15:21.237Z,20.30
2017-08-07T11:17:50.441Z,19.53
2017-08-07T11:20:19.750Z,20.77
2017-08-07T11:22:49.746Z,21.13
2017-08-07T11:25:19.035Z,19.33
2017-08-07T11:27:48.293Z,21.40
2017-08-07T11:30:17.585Z,19.40
2017-08-07T11:32:46.673Z,19.77
2017-08-07T11:35:16.742Z,19.03
2017-08-07T11:37:46.068Z,20.70
2017-08-07T11:40:15.143Z,19.27
2017-08-07T11:42:44.519Z,20.20
2017-08-07T11:45:13.650Z,19.97
2017-08-07T11:47:42.740Z,19.70
2017-08-07T11:50:11.993Z,20.20
2017-08-07T11:52:41.397Z,20.17
2017-08-07T11:55:10.522Z,22.00
2017-08-07T11:57:40.047Z,22.93
2017-08-07T12:00:09.279Z,22.80
2017-08-07T12:02:39.275Z,21.30
2017-08-07T12:05:08.497Z,22.00
2017-08-07T12:07:38.694Z,23.90
2017-08-07T12:10:08.061Z,21.80
2017-08-07T12:12:37.284Z,21.37
2017-08-07T12:15:06.541Z,23.00
2017-08-07T12:17:35.748Z,22.57
2017-08-07T12:20:05.149Z,23.50
2017-08-07T12:22:34.393Z,23.43
2017-08-07T12:25:04.658Z,23.53
2017-08-07T12:27:34.066Z,23.27
2017-08-07T12:30:03.414Z,23.73
2017-08-07T12:32:32.604Z,20.47
2017-08-07T12:35:01.943Z,24.27
2017-08-07T12:37:31.994Z,24.57
2017-08-07T12:40:01.420Z,23.60
2017-08-07T12:42:30.699Z,23.40
2017-08-07T12:45:00.139Z,23.40
2017-08-07T12:47:29.378Z,23.37
2017-08-07T12:49:59.547Z,23.80
2017-08-07T12:52:29.126Z,23.30
2017-08-07T12:54:58.342Z,22.20
2017-08-07T12:57:27.763Z,23.97
2017-08-07T12:59:57.148Z,22.03
2017-08-07T13:02:26.355Z,23.20
2017-08-07T13:04:55.807Z,24.10
2017-08-07T13:07:24.923Z,22.60
2017-08-07T13:09:54.291Z,24.47
2017-08-07T13:12:23.428Z,22.47
2017-08-07T13:14:52.760Z,21.50
2017-08-07T13:17:22.015Z,23.20
2017-08-07T13:19:51.318Z,25.27
2017-08-07T13:22:20.767Z,24.50
2017-08-07T13:24:50.063Z,23.77
2017-08-07T13:27:20.343Z,24.17
2017-08-07T13:29:50.398Z,24.47
2017-08-07T13:32:19.665Z,23.40
2017-08-07T13:34:49.098Z,23.77
2017-08-07T13:37:18.440Z,22.97
2017-08-07T13:39:47.772Z,24.40
2017-08-07T13:42:16.986Z,25.63
2017-08-07T13:44:46.474Z,22.37
2017-08-07T13:47:16.002Z,23.87
2017-08-07T13:49:45.180Z,22.90
2017-08-07T13:52:14.595Z,22.00
2017-08-07T13:54:43.745Z,25.13
2017-08-07T13:57:13.086Z,24.70
2017-08-07T13:59:42.488Z,23.47
2017-08-07T14:02:11.667Z,25.47
2017-08-07T14:04:41.287Z,25.13
2017-08-07T14:07:10.540Z,22.17
2017-08-07T14:09:39.904Z,25.63
2017-08-07T14:12:09.140Z,24.33
2017-08-07T14:14:38.646Z,25.60
2017-08-07T14:17:07.948Z,23.67
2017-08-07T14:19:37.012Z,22.90
2017-08-07T14:22:06.442Z,23.80
2017-08-07T14:24:35.655Z,26.97
2017-08-07T14:27:04.847Z,25.40
2017-08-07T14:29:35.196Z,26.27
2017-08-07T14:32:04.341Z,25.73
2017-08-07T14:34:33.580Z,25.77
2017-08-07T14:37:02.992Z,23.70
2017-08-07T14:39:32.034Z,24.70
2017-08-07T14:42:01.625Z,27.60
2017-08-07T14:44:33.008Z,25.50
2017-08-07T14:47:02.047Z,24.30
2017-08-07T14:49:31.361Z,26.60
2017-08-07T14:52:00.837Z,24.73
2017-08-07T14:54:30.274Z,23.50
2017-08-07T14:56:59.478Z,26.30
2017-08-07T14:59:28.928Z,24.90
2017-08-07T15:01:58.174Z,23.17
2017-08-07T15:04:27.525Z,27.23
2017-08-07T15:06:56.713Z,29.50
2017-08-07T15:09:26.058Z,25.17
2017-08-07T15:11:55.529Z,25.70
2017-08-07T15:14:24.902Z,26.60
2017-08-07T15:16:54.144Z,24.97
2017-08-07T15:19:23.520Z,25.30
2017-08-07T15:21:52.582Z,25.90
2017-08-07T15:24:21.805Z,24.13
2017-08-07T15:26:51.076Z,24.73
2017-08-07T15:29:20.314Z,22.77
2017-08-07T15:31:51.524Z,25.27
2017-08-07T15:34:20.775Z,23.37
2017-08-07T15:36:50.132Z,23.80
2017-08-07T15:39:19.443Z,24.60
2017-08-07T15:41:48.700Z,23.53
2017-08-07T15:44:18.650Z,23.00
2017-08-07T15:46:47.706Z,24.93
2017-08-07T15:49:17.285Z,25.20
2017-08-07T15:51:46.559Z,25.30
2017-08-07T15:54:15.673Z,24.50
2017-08-07T15:56:44.815Z,25.00
2017-08-07T15:59:14.051Z,23.70
2017-08-07T16:01:44.241Z,24.87
2017-08-07T16:04:13.768Z,26.07
2017-08-07T16:06:43.379Z,24.37
2017-08-07T16:09:13.076Z,25.23
2017-08-07T16:11:42.313Z,25.63
2017-08-07T16:14:11.437Z,23.63
2017-08-07T16:16:40.776Z,24.80
2017-08-07T16:19:10.231Z,26.90
2017-08-07T16:21:39.332Z,25.73
2017-08-07T16:24:08.585Z,25.40
2017-08-07T16:26:38.089Z,25.20
2017-08-07T16:29:07.466Z,25.60
2017-08-07T16:31:36.743Z,22.63
2017-08-07T16:34:06.673Z,24.30
2017-08-07T16:36:36.142Z,24.50
2017-08-07T16:39:05.423Z,21.63
2017-08-07T16:41:34.884Z,21.40
2017-08-07T16:44:04.155Z,23.67
2017-08-07T16:46:33.587Z,23.50
2017-08-07T16:49:03.078Z,22.00
2017-08-07T16:51:32.505Z,22.87
2017-08-07T16:54:02.641Z,21.53
2017-08-07T16:56:32.025Z,21.87
2017-08-07T16:59:02.951Z,22.63
2017-08-07T17:01:32.494Z,22.43
2017-08-07T17:04:01.595Z,21.90
2017-08-07T17:06:30.970Z,21.60
2017-08-07T17:09:00.572Z,21.90
2017-08-07T17:11:29.883Z,23.60
2017-08-07T17:13:59.219Z,22.03
2017-08-07T17:16:28.710Z,24.40
2017-08-07T17:18:58.019Z,23.73
2017-08-07T17:21:27.233Z,22.10
2017-08-07T17:23:56.502Z,24.10
2017-08-07T17:26:25.830Z,22.83
2017-08-07T17:28:55.069Z,24.67
2017-08-07T17:31:24.834Z,22.70
2017-08-07T17:33:54.230Z,24.30
2017-08-07T17:36:24.989Z,24.17
2017-08-07T17:38:54.297Z,20.07
2017-08-07T17:41:23.694Z,20.83
2017-08-07T17:43:53.254Z,25.50
2017-08-07T17:46:22.372Z,20.10
2017-08-07T17:48:51.652Z,21.37
2017-08-07T17:51:20.967Z,20.23
2017-08-07T17:53:50.200Z,23.97
2017-08-07T17:56:19.429Z,23.63
2017-08-07T17:58:48.627Z,22.33
2017-08-07T18:01:17.778Z,22.80
2017-08-07T18:03:46.962Z,22.10
2017-08-07T18:06:16.555Z,20.40
2017-08-07T18:08:45.868Z,20.73
2017-08-07T18:11:15.191Z,24.07
2017-08-07T18:13:44.477Z,21.60
2017-08-07T18:16:14.146Z,19.90
2017-08-07T18:18:43.401Z,25.80
2017-08-07T18:21:12.914Z,21.97
2017-08-07T18:23:42.133Z,23.37
2017-08-07T18:26:11.354Z,25.50
2017-08-07T18:28:49.572Z,23.60
2017-08-07T18:31:18.880Z,23.43
2017-08-07T18:33:48.311Z,22.53
2017-08-07T18:36:17.533Z,22.90
2017-08-07T18:38:47.873Z,23.37
2017-08-07T18:41:17.038Z,22.13
2017-08-07T18:43:46.422Z,23.50
2017-08-07T18:46:15.919Z,24.13
2017-08-07T18:48:45.811Z,23.53
2017-08-07T18:51:15.760Z,23.00
2017-08-07T18:53:44.829Z,24.20
2017-08-07T18:56:14.423Z,22.40
2017-08-07T18:58:44.514Z,21.60
2017-08-07T19:01:15.539Z,23.47
2017-08-07T19:03:45.226Z,24.10
2017-08-07T19:06:14.348Z,21.87
2017-08-07T19:08:43.658Z,21.80
2017-08-07T19:11:13.142Z,25.43
2017-08-07T19:13:42.651Z,23.87
2017-08-07T19:16:11.827Z,22.30
2017-08-07T19:18:41.192Z,23.80
2017-08-07T19:21:10.549Z,22.77
2017-08-07T19:23:39.700Z,25.50
2017-08-07T19:26:09.054Z,22.17
2017-08-07T19:28:38.230Z,23.33
2017-08-07T19:31:07.357Z,24.80
2017-08-07T19:33:36.820Z,23.67
2017-08-07T19:36:06.011Z,21.57
2017-08-07T19:38:35.328Z,22.50
2017-08-07T19:41:05.589Z,26.87
2017-08-07T19:43:34.846Z,24.70
2017-08-07T19:46:03.893Z,25.27
2017-08-07T19:48:33.014Z,22.90
2017-08-07T19:51:02.364Z,25.70
2017-08-07T19:53:31.660Z,24.37
2017-08-07T19:56:00.977Z,24.90
2017-08-07T19:58:30.037Z,25.50
2017-08-07T20:00:59.266Z,26.60
2017-08-07T20:03:29.913Z,25.17
2017-08-07T20:05:59.091Z,24.33
2017-08-07T20:08:28.566Z,26.00
2017-08-07T20:10:58.050Z,28.53
2017-08-07T20:13:27.418Z,26.10
2017-08-07T20:15:56.521Z,23.97
2017-08-07T20:18:25.945Z,29.77
2017-08-07T20:20:55.188Z,28.07
2017-08-07T20:23:24.473Z,27.93
2017-08-07T20:25:53.987Z,28.57
2017-08-07T20:28:23.155Z,26.87
2017-08-07T20:30:53.186Z,26.07
2017-08-07T20:33:22.441Z,27.60
2017-08-07T20:35:51.666Z,26.37
2017-08-07T20:38:21.024Z,27.67
2017-08-07T20:40:50.467Z,26.20
2017-08-07T20:43:20.606Z,25.83
2017-08-07T20:45:50.710Z,27.20
2017-08-07T20:48:20.134Z,26.63
2017-08-07T20:50:49.713Z,26.73
2017-08-07T20:53:18.828Z,26.80
2017-08-07T20:55:49.431Z,27.23
2017-08-07T20:58:18.531Z,25.10
2017-08-07T21:00:47.781Z,24.13
2017-08-07T21:03:16.888Z,25.83
2017-08-07T21:05:46.238Z,26.30
2017-08-07T21:08:15.749Z,26.60
2017-08-07T21:10:44.831Z,26.60
2017-08-07T21:13:14.039Z,27.30
2017-08-07T21:15:43.331Z,26.47
2017-08-07T21:18:12.408Z,26.03
2017-08-07T21:20:41.850Z,26.00
2017-08-07T21:23:12.791Z,26.50
2017-08-07T21:25:42.289Z,27.80
2017-08-07T21:28:12.538Z,27.20
2017-08-07T21:30:41.891Z,25.80
2017-08-07T21:33:11.247Z,26.43
2017-08-07T21:35:40.724Z,27.80
2017-08-07T21:38:11.045Z,27.63
2017-08-07T21:40:40.572Z,25.23
2017-08-07T21:43:09.800Z,28.17
2017-08-07T21:45:39.797Z,26.50
2017-08-07T21:48:09.027Z,25.77
2017-08-07T21:50:38.122Z,27.20
2017-08-07T21:53:07.436Z,25.33
2017-08-07T21:55:36.708Z,27.20
2017-08-07T21:58:05.753Z,26.27
2017-08-07T22:00:34.885Z,26.13
2017-08-07T22:03:04.003Z,25.40
2017-08-07T22:05:33.273Z,26.47
2017-08-07T22:08:02.039Z,27.07
2017-08-07T22:10:31.514Z,27.50
2017-08-07T22:13:00.674Z,27.70
2017-08-07T22:15:30.115Z,27.63
2017-08-07T22:17:59.275Z,27.10
2017-08-07T22:20:28.563Z,26.57
2017-08-07T22:22:58.001Z,26.90
2017-08-07T22:25:27.193Z,27.20
2017-08-07T22:27:56.674Z,25.90
2017-08-07T22:30:25.850Z,25.70
2017-08-07T22:32:54.980Z,27.63
2017-08-07T22:35:24.298Z,26.23
2017-08-07T22:37:53.679Z,25.60
2017-08-07T22:40:22.811Z,23.97
2017-08-07T22:42:52.098Z,26.53
2017-08-07T22:45:21.552Z,24.30
2017-08-07T22:47:51.733Z,26.63
2017-08-07T22:50:23.936Z,27.13
2017-08-07T22:52:54.135Z,26.53
2017-08-07T22:55:29.936Z,28.43
2017-08-07T22:57:59.654Z,27.93
2017-08-07T23:00:28.773Z,26.90
2017-08-07T23:02:58.340Z,30.07
2017-08-07T23:05:27.792Z,31.93
2017-08-07T23:07:57.288Z,32.53
2017-08-07T23:10:26.531Z,34.63
2017-08-07T23:12:56.457Z,33.97
2017-08-07T23:15:25.937Z,33.70
2017-08-07T23:17:56.392Z,39.03
2017-08-07T23:20:25.762Z,38.33
2017-08-07T23:22:55.156Z,37.60
2017-08-07T23:25:24.176Z,38.80
2017-08-07T23:27:55.317Z,35.83
2017-08-07T23:30:24.498Z,38.87
2017-08-07T23:32:53.908Z,40.67
2017-08-07T23:35:23.249Z,40.80
2017-08-07T23:37:52.909Z,39.83
2017-08-07T23:40:22.819Z,45.13
2017-08-07T23:42:52.137Z,42.77
2017-08-07T23:45:21.817Z,48.80
2017-08-07T23:47:53.508Z,46.83
2017-08-07T23:50:22.711Z,44.27
2017-08-07T23:52:52.143Z,43.50
2017-08-07T23:55:22.215Z,46.50
2017-08-07T23:57:51.916Z,44.07
